sensor_id;sensor_type;location;lat;lon;timestamp;pressure;altitude;pressure_sealevel;temperature;humidity
13348;BME280;6743;49.934;9.138;2022-09-09T00:00:47;99962.03;;;16.62;100.00
13348;BME280;6743;49.934;9.138;2022-09-09T00:03:18;99954.19;;;16.60;100.00
13348;BME280;6743;49.934;9.138;2022-09-09T00:05:57;99951.91;;;16.57;100.00
13348;BME280;6743;49.934;9.138;2022-09-09T00:08:29;99958.50;;;16.54;100.00
13348;BME280;6743;49.934;9.138;2022-09-09T00:11:03;99945.31;;;16.53;100.00
13348;BME280;6743;49.934;9.138;2022-09-09T00:13:34;99943.72;;;16.52;100.00
13348;BME280;6743;49.934;9.138;2022-09-09T00:16:06;99949.28;;;16.50;100.00
13348;BME280;6743;49.934;9.138;2022-09-09T00:18:40;99950.50;;;16.48;100.00
13348;BME280;6743;49.934;9.138;2022-09-09T00:21:13;99943.72;;;16.45;100.00
13348;BME280;6743;49.934;9.138;2022-09-09T00:23:45;99948.25;;;16.45;100.00
13348;BME280;6743;49.934;9.138;2022-09-09T00:26:18;99945.16;;;16.41;100.00
13348;BME280;6743;49.934;9.138;2022-09-09T00:28:52;99941.47;;;16.42;100.00
13348;BME280;6743;49.934;9.138;2022-09-09T00:31:26;99931.63;;;16.30;100.00
13348;BME280;6743;49.934;9.138;2022-09-09T00:33:55;99950.13;;;16.38;100.00
13348;BME280;6743;49.934;9.138;2022-09-09T00:36:26;99961.25;;;16.35;100.00
13348;BME280;6743;49.934;9.138;2022-09-09T00:38:56;99948.06;;;16.33;100.00
13348;BME280;6743;49.934;9.138;2022-09-09T00:41:31;99938.19;;;16.34;100.00
13348;BME280;6743;49.934;9.138;2022-09-09T00:44:15;99937.16;;;16.35;100.00
13348;BME280;6743;49.934;9.138;2022-09-09T00:47:12;99936.53;;;16.33;100.00
13348;BME280;6743;49.934;9.138;2022-09-09T00:49:54;99944.34;;;16.34;100.00
13348;BME280;6743;49.934;9.138;2022-09-09T00:52:32;99947.25;;;16.33;100.00
13348;BME280;6743;49.934;9.138;2022-09-09T00:55:07;99947.25;;;16.33;100.00
13348;BME280;6743;49.934;9.138;2022-09-09T00:57:36;99950.75;;;16.33;100.00
13348;BME280;6743;49.934;9.138;2022-09-09T01:00:24;99952.59;;;16.33;100.00
13348;BME280;6743;49.934;9.138;2022-09-09T01:03:07;99945.81;;;16.37;100.00
13348;BME280;6743;49.934;9.138;2022-09-09T01:05:41;99952.81;;;16.38;100.00
13348;BME280;6743;49.934;9.138;2022-09-09T01:08:24;99950.72;;;16.40;100.00
13348;BME280;6743;49.934;9.138;2022-09-09T01:10:54;99951.53;;;16.40;100.00
13348;BME280;6743;49.934;9.138;2022-09-09T01:13:23;99941.47;;;16.42;100.00
13348;BME280;6743;49.934;9.138;2022-09-09T01:15:50;99948.25;;;16.45;100.00
13348;BME280;6743;49.934;9.138;2022-09-09T01:18:21;99944.31;;;16.47;100.00
13348;BME280;6743;49.934;9.138;2022-09-09T01:20:57;99947.63;;;16.49;100.00
13348;BME280;6743;49.934;9.138;2022-09-09T01:23:45;99937.53;;;16.51;100.00
13348;BME280;6743;49.934;9.138;2022-09-09T01:26:33;99942.25;;;16.56;100.00
13348;BME280;6743;49.934;9.138;2022-09-09T01:29:01;99939.16;;;16.59;100.00
13348;BME280;6743;49.934;9.138;2022-09-09T01:31:29;99928.25;;;16.61;100.00
13348;BME280;6743;49.934;9.138;2022-09-09T01:33:56;99922.06;;;16.60;100.00
13348;BME280;6743;49.934;9.138;2022-09-09T01:36:27;99926.38;;;16.61;100.00
13348;BME280;6743;49.934;9.138;2022-09-09T01:38:55;99911.13;;;16.55;100.00
13348;BME280;6743;49.934;9.138;2022-09-09T01:41:21;99928.03;;;16.62;100.00
13348;BME280;6743;49.934;9.138;2022-09-09T01:43:48;99921.03;;;16.61;100.00
13348;BME280;6743;49.934;9.138;2022-09-09T01:46:14;99921.03;;;16.61;100.00
13348;BME280;6743;49.934;9.138;2022-09-09T01:48:42;99912.59;;;16.51;100.00
13348;BME280;6743;49.934;9.138;2022-09-09T01:51:09;99933.78;;;16.59;100.00
13348;BME280;6743;49.934;9.138;2022-09-09T01:53:36;99916.50;;;16.48;100.00
13348;BME280;6743;49.934;9.138;2022-09-09T01:56:10;99935.25;;;16.55;100.00
13348;BME280;6743;49.934;9.138;2022-09-09T01:58:50;99933.00;;;16.52;100.00
13348;BME280;6743;49.934;9.138;2022-09-09T02:01:27;99928.66;;;16.51;100.00
13348;BME280;6743;49.934;9.138;2022-09-09T02:04:02;99935.25;;;16.48;100.00
13348;BME280;6743;49.934;9.138;2022-09-09T02:06:34;99939.78;;;16.48;100.00
13348;BME280;6743;49.934;9.138;2022-09-09T02:09:04;99936.28;;;16.47;100.00
13348;BME280;6743;49.934;9.138;2022-09-09T02:11:30;99936.91;;;16.49;100.00
13348;BME280;6743;49.934;9.138;2022-09-09T02:14:01;99928.66;;;16.51;100.00
13348;BME280;6743;49.934;9.138;2022-09-09T02:16:32;99932.37;;;16.50;100.00
13348;BME280;6743;49.934;9.138;2022-09-09T02:19:02;99935.47;;;16.47;100.00
13348;BME280;6743;49.934;9.138;2022-09-09T02:21:33;99934.63;;;16.46;100.00
13348;BME280;6743;49.934;9.138;2022-09-09T02:24:03;99933.22;;;16.44;100.00
13348;BME280;6743;49.934;9.138;2022-09-09T02:26:31;99926.63;;;16.40;100.00
13348;BME280;6743;49.934;9.138;2022-09-09T02:29:02;99937.78;;;16.37;100.00
13348;BME280;6743;49.934;9.138;2022-09-09T02:31:30;99952.19;;;16.36;100.00
13348;BME280;6743;49.934;9.138;2022-09-09T02:34:01;99946.22;;;16.34;100.00
13348;BME280;6743;49.934;9.138;2022-09-09T02:36:31;99947.25;;;16.33;100.00
13348;BME280;6743;49.934;9.138;2022-09-09T02:38:58;99946.84;;;16.29;100.00
13348;BME280;6743;49.934;9.138;2022-09-09T02:41:28;99949.31;;;16.31;100.00
13348;BME280;6743;49.934;9.138;2022-09-09T02:43:56;99938.63;;;16.31;100.00
13348;BME280;6743;49.934;9.138;2022-09-09T02:46:36;99921.94;;;16.22;100.00
13348;BME280;6743;49.934;9.138;2022-09-09T02:49:09;99942.31;;;16.30;100.00
13348;BME280;6743;49.934;9.138;2022-09-09T02:51:40;99940.66;;;16.29;100.00
13348;BME280;6743;49.934;9.138;2022-09-09T02:54:17;99944.56;;;16.26;100.00
13348;BME280;6743;49.934;9.138;2022-09-09T02:56:50;99948.06;;;16.27;100.00
13348;BME280;6743;49.934;9.138;2022-09-09T02:59:18;99936.53;;;16.26;100.00
13348;BME280;6743;49.934;9.138;2022-09-09T03:01:44;99941.06;;;16.26;100.00
13348;BME280;6743;49.934;9.138;2022-09-09T03:04:10;99943.97;;;16.24;100.00
13348;BME280;6743;49.934;9.138;2022-09-09T03:06:36;99948.50;;;16.24;100.00
13348;BME280;6743;49.934;9.138;2022-09-09T03:09:03;99951.19;;;16.24;100.00
13348;BME280;6743;49.934;9.138;2022-09-09T03:11:29;99955.91;;;16.22;100.00
13348;BME280;6743;49.934;9.138;2022-09-09T03:13:55;99950.78;;;16.20;100.00
13348;BME280;6743;49.934;9.138;2022-09-09T03:16:21;99946.88;;;16.23;100.00
13348;BME280;6743;49.934;9.138;2022-09-09T03:18:48;99947.06;;;16.21;100.00
13348;BME280;6743;49.934;9.138;2022-09-09T03:21:14;99944.78;;;16.18;100.00
13348;BME280;6743;49.934;9.138;2022-09-09T03:23:40;99948.53;;;16.17;100.00
13348;BME280;6743;49.934;9.138;2022-09-09T03:26:07;99933.50;;;16.09;100.00
13348;BME280;6743;49.934;9.138;2022-09-09T03:28:33;99934.31;;;16.17;100.00
13348;BME280;6743;49.934;9.138;2022-09-09T03:31:00;99938.66;;;16.18;100.00
13348;BME280;6743;49.934;9.138;2022-09-09T03:33:27;99934.31;;;16.17;100.00
13348;BME280;6743;49.934;9.138;2022-09-09T03:35:53;99928.97;;;16.17;100.00
13348;BME280;6743;49.934;9.138;2022-09-09T03:38:22;99930.81;;;16.16;100.00
13348;BME280;6743;49.934;9.138;2022-09-09T03:40:50;99933.28;;;16.18;100.00
13348;BME280;6743;49.934;9.138;2022-09-09T03:43:16;99936.16;;;16.16;100.00
13348;BME280;6743;49.934;9.138;2022-09-09T03:45:45;99940.91;;;16.14;100.00
13348;BME280;6743;49.934;9.138;2022-09-09T03:48:11;99935.75;;;16.12;100.00
13348;BME280;6743;49.934;9.138;2022-09-09T03:50:37;99936.19;;;16.09;100.00
13348;BME280;6743;49.934;9.138;2022-09-09T03:53:04;99946.25;;;16.07;100.00
13348;BME280;6743;49.934;9.138;2022-09-09T03:55:31;99945.88;;;16.04;100.00
13348;BME280;6743;49.934;9.138;2022-09-09T03:57:57;99949.78;;;16.01;100.00
13348;BME280;6743;49.934;9.138;2022-09-09T04:00:23;99946.91;;;15.96;100.00
13348;BME280;6743;49.934;9.138;2022-09-09T04:02:49;99946.47;;;15.93;100.00
13348;BME280;6743;49.934;9.138;2022-09-09T04:05:19;99938.06;;;15.89;100.00
13348;BME280;6743;49.934;9.138;2022-09-09T04:07:45;99941.13;;;15.86;100.00
13348;BME280;6743;49.934;9.138;2022-09-09T04:10:11;99935.16;;;15.84;100.00
13348;BME280;6743;49.934;9.138;2022-09-09T04:12:38;99942.34;;;15.84;100.00
13348;BME280;6743;49.934;9.138;2022-09-09T04:15:05;99928.38;;;15.75;100.00
13348;BME280;6743;49.934;9.138;2022-09-09T04:17:31;99929.62;;;15.79;100.00
13348;BME280;6743;49.934;9.138;2022-09-09T04:19:58;99921.59;;;15.79;100.00
13348;BME280;6743;49.934;9.138;2022-09-09T04:22:24;99925.50;;;15.76;100.00
13348;BME280;6743;49.934;9.138;2022-09-09T04:24:50;99917.28;;;15.71;100.00
13348;BME280;6743;49.934;9.138;2022-09-09T04:27:16;99928.59;;;15.73;100.00
13348;BME280;6743;49.934;9.138;2022-09-09T04:29:42;99918.09;;;15.72;100.00
13348;BME280;6743;49.934;9.138;2022-09-09T04:32:08;99916.44;;;15.71;100.00
13348;BME280;6743;49.934;9.138;2022-09-09T04:34:34;99924.69;;;15.69;100.00
13348;BME280;6743;49.934;9.138;2022-09-09T04:37:00;99923.88;;;15.69;100.00
13348;BME280;6743;49.934;9.138;2022-09-09T04:39:26;99928.16;;;15.63;100.00
13348;BME280;6743;49.934;9.138;2022-09-09T04:41:52;99939.50;;;15.65;100.00
13348;BME280;6743;49.934;9.138;2022-09-09T04:44:19;99935.59;;;15.68;100.00
13348;BME280;6743;49.934;9.138;2022-09-09T04:46:45;99938.06;;;15.69;100.00
13348;BME280;6743;49.934;9.138;2022-09-09T04:49:11;99943.81;;;15.66;100.00
13348;BME280;6743;49.934;9.138;2022-09-09T04:51:37;99945.84;;;15.71;100.00
13348;BME280;6743;49.934;9.138;2022-09-09T04:54:04;99952.47;;;15.68;100.00
13348;BME280;6743;49.934;9.138;2022-09-09T04:56:31;99950.81;;;15.67;100.00
13348;BME280;6743;49.934;9.138;2022-09-09T04:58:57;99944.62;;;15.67;100.00
13348;BME280;6743;49.934;9.138;2022-09-09T05:01:23;99950.19;;;15.65;100.00
13348;BME280;6743;49.934;9.138;2022-09-09T05:03:50;99950.00;;;15.67;100.00
13348;BME280;6743;49.934;9.138;2022-09-09T05:06:18;99946.09;;;15.69;100.00
13348;BME280;6743;49.934;9.138;2022-09-09T05:08:45;99940.94;;;15.74;100.00
13348;BME280;6743;49.934;9.138;2022-09-09T05:11:15;99936.19;;;15.76;100.00
13348;BME280;6743;49.934;9.138;2022-09-09T05:13:41;99941.34;;;15.85;100.00
13348;BME280;6743;49.934;9.138;2022-09-09T05:16:07;99937.81;;;15.91;100.00
13348;BME280;6743;49.934;9.138;2022-09-09T05:18:37;99944.81;;;15.98;100.00
13348;BME280;6743;49.934;9.138;2022-09-09T05:21:03;99930.84;;;15.96;100.00
13348;BME280;6743;49.934;9.138;2022-09-09T05:23:29;99947.91;;;16.08;100.00
13348;BME280;6743;49.934;9.138;2022-09-09T05:25:56;99952.81;;;16.11;100.00
13348;BME280;6743;49.934;9.138;2022-09-09T05:28:22;99965.81;;;16.14;100.00
13348;BME280;6743;49.934;9.138;2022-09-09T05:30:55;99955.72;;;16.17;100.00
13348;BME280;6743;49.934;9.138;2022-09-09T05:33:21;99960.25;;;16.23;100.00
13348;BME280;6743;49.934;9.138;2022-09-09T05:35:55;99949.13;;;16.19;100.00
13348;BME280;6743;49.934;9.138;2022-09-09T05:38:21;99970.13;;;16.29;100.00
13348;BME280;6743;49.934;9.138;2022-09-09T05:40:49;99978.53;;;16.32;100.00
13348;BME280;6743;49.934;9.138;2022-09-09T05:43:15;99977.94;;;16.37;100.00
13348;BME280;6743;49.934;9.138;2022-09-09T05:45:44;99991.69;;;16.40;100.00
13348;BME280;6743;49.934;9.138;2022-09-09T05:48:11;99975.25;;;16.37;100.00
13348;BME280;6743;49.934;9.138;2022-09-09T05:50:37;99988.19;;;16.46;100.00
13348;BME280;6743;49.934;9.138;2022-09-09T05:53:04;99981.81;;;16.47;100.00
13348;BME280;6743;49.934;9.138;2022-09-09T05:55:30;99983.25;;;16.50;100.00
13348;BME280;6743;49.934;9.138;2022-09-09T05:57:56;99990.25;;;16.51;100.00
13348;BME280;6743;49.934;9.138;2022-09-09T06:00:22;99990.66;;;16.54;100.00
13348;BME280;6743;49.934;9.138;2022-09-09T06:02:50;99995.81;;;16.56;100.00
13348;BME280;6743;49.934;9.138;2022-09-09T06:05:17;99994.37;;;16.60;100.00
13348;BME280;6743;49.934;9.138;2022-09-09T06:07:44;100008.19;;;16.64;100.00
13348;BME280;6743;49.934;9.138;2022-09-09T06:10:11;100002.38;;;16.67;100.00
13348;BME280;6743;49.934;9.138;2022-09-09T06:12:38;100000.94;;;16.71;100.00
13348;BME280;6743;49.934;9.138;2022-09-09T06:15:05;100001.56;;;16.73;100.00
13348;BME280;6743;49.934;9.138;2022-09-09T06:17:31;100006.09;;;16.72;100.00
13348;BME280;6743;49.934;9.138;2022-09-09T06:19:57;100010.16;;;16.81;100.00
13348;BME280;6743;49.934;9.138;2022-09-09T06:22:23;99989.78;;;16.74;100.00
13348;BME280;6743;49.934;9.138;2022-09-09T06:24:49;100013.06;;;16.86;100.00
13348;BME280;6743;49.934;9.138;2022-09-09T06:27:17;100006.44;;;16.89;100.00
13348;BME280;6743;49.934;9.138;2022-09-09T06:29:43;100007.25;;;16.89;100.00
13348;BME280;6743;49.934;9.138;2022-09-09T06:32:08;100017.16;;;16.89;100.00
13348;BME280;6743;49.934;9.138;2022-09-09T06:34:35;100003.16;;;16.87;100.00
13348;BME280;6743;49.934;9.138;2022-09-09T06:37:01;100005.84;;;16.87;100.00
13348;BME280;6743;49.934;9.138;2022-09-09T06:39:27;100005.84;;;16.87;100.00
13348;BME280;6743;49.934;9.138;2022-09-09T06:41:53;100009.31;;;16.87;100.00
13348;BME280;6743;49.934;9.138;2022-09-09T06:44:20;100003.75;;;16.89;100.00
13348;BME280;6743;49.934;9.138;2022-09-09T06:46:46;100008.28;;;16.88;100.00
13348;BME280;6743;49.934;9.138;2022-09-09T06:49:14;100008.28;;;16.88;100.00
13348;BME280;6743;49.934;9.138;2022-09-09T06:51:40;100002.72;;;16.90;100.00
13348;BME280;6743;49.934;9.138;2022-09-09T06:54:08;100001.50;;;16.92;100.00
13348;BME280;6743;49.934;9.138;2022-09-09T06:56:36;100009.09;;;16.96;100.00
13348;BME280;6743;49.934;9.138;2022-09-09T06:59:04;100006.81;;;16.99;100.00
13348;BME280;6743;49.934;9.138;2022-09-09T07:01:32;100008.25;;;17.02;100.00
13348;BME280;6743;49.934;9.138;2022-09-09T07:03:59;100008.66;;;17.05;100.00
13348;BME280;6743;49.934;9.138;2022-09-09T07:06:27;100011.13;;;17.07;100.00
13348;BME280;6743;49.934;9.138;2022-09-09T07:08:54;100014.19;;;17.10;100.00
13348;BME280;6743;49.934;9.138;2022-09-09T07:11:22;100019.13;;;17.13;100.00
13348;BME280;6743;49.934;9.138;2022-09-09T07:13:48;100022.41;;;17.15;100.00
13348;BME280;6743;49.934;9.138;2022-09-09T07:16:16;100018.50;;;17.18;100.00
13348;BME280;6743;49.934;9.138;2022-09-09T07:18:44;100026.13;;;17.21;100.00
13348;BME280;6743;49.934;9.138;2022-09-09T07:21:11;100016.41;;;17.26;100.00
13348;BME280;6743;49.934;9.138;2022-09-09T07:23:38;100017.38;;;17.32;100.00
13348;BME280;6743;49.934;9.138;2022-09-09T07:26:08;100014.66;;;17.39;100.00
13348;BME280;6743;49.934;9.138;2022-09-09T07:28:34;100018.56;;;17.43;100.00
13348;BME280;6743;49.934;9.138;2022-09-09T07:31:01;100019.78;;;17.47;100.00
13348;BME280;6743;49.934;9.138;2022-09-09T07:33:29;100011.56;;;17.42;100.00
13348;BME280;6743;49.934;9.138;2022-09-09T07:36:03;100021.78;;;17.58;100.00
13348;BME280;6743;49.934;9.138;2022-09-09T07:38:29;100019.06;;;17.64;100.00
13348;BME280;6743;49.934;9.138;2022-09-09T07:41:03;100022.53;;;17.71;100.00
13348;BME280;6743;49.934;9.138;2022-09-09T07:43:29;100029.72;;;17.78;100.00
13348;BME280;6743;49.934;9.138;2022-09-09T07:45:57;100036.69;;;17.85;100.00
13348;BME280;6743;49.934;9.138;2022-09-09T07:48:23;100026.34;;;17.89;100.00
13348;BME280;6743;49.934;9.138;2022-09-09T07:50:50;100027.50;;;17.99;100.00
13348;BME280;6743;49.934;9.138;2022-09-09T07:53:17;100020.22;;;18.06;100.00
13348;BME280;6743;49.934;9.138;2022-09-09T07:55:45;100017.09;;;18.09;100.00
13348;BME280;6743;49.934;9.138;2022-09-09T07:58:11;100017.25;;;18.15;100.00
13348;BME280;6743;49.934;9.138;2022-09-09T08:00:37;100028.81;;;18.15;100.00
13348;BME280;6743;49.934;9.138;2022-09-09T08:03:04;100029.44;;;18.17;100.00
13348;BME280;6743;49.934;9.138;2022-09-09T08:05:31;100027.34;;;18.19;100.00
13348;BME280;6743;49.934;9.138;2022-09-09T08:07:57;100036.22;;;18.20;100.00
13348;BME280;6743;49.934;9.138;2022-09-09T08:10:23;100029.44;;;18.17;100.00
13348;BME280;6743;49.934;9.138;2022-09-09T08:12:49;100035.78;;;18.23;100.00
13348;BME280;6743;49.934;9.138;2022-09-09T08:15:15;100046.06;;;18.26;100.00
13348;BME280;6743;49.934;9.138;2022-09-09T08:17:41;100045.50;;;18.24;100.00
13348;BME280;6743;49.934;9.138;2022-09-09T08:20:09;100040.94;;;18.24;100.00
13348;BME280;6743;49.934;9.138;2022-09-09T08:22:35;100047.34;;;18.23;100.00
13348;BME280;6743;49.934;9.138;2022-09-09T08:25:03;100054.59;;;18.23;100.00
13348;BME280;6743;49.934;9.138;2022-09-09T08:27:32;100051.91;;;18.23;100.00
13348;BME280;6743;49.934;9.138;2022-09-09T08:29:58;100059.75;;;18.24;100.00
13348;BME280;6743;49.934;9.138;2022-09-09T08:32:24;100063.63;;;18.28;100.00
13348;BME280;6743;49.934;9.138;2022-09-09T08:34:51;100054.75;;;18.28;100.00
13348;BME280;6743;49.934;9.138;2022-09-09T08:37:17;100058.59;;;18.38;100.00
13348;BME280;6743;49.934;9.138;2022-09-09T08:39:44;100052.97;;;18.40;100.00
13348;BME280;6743;49.934;9.138;2022-09-09T08:42:30;100058.75;;;18.43;100.00
13348;BME280;6743;49.934;9.138;2022-09-09T08:45:20;100067.16;;;18.47;100.00
13348;BME280;6743;49.934;9.138;2022-09-09T08:47:57;100066.31;;;18.53;100.00
13348;BME280;6743;49.934;9.138;2022-09-09T08:50:27;100055.28;;;18.61;100.00
13348;BME280;6743;49.934;9.138;2022-09-09T08:52:59;100060.00;;;18.66;100.00
13348;BME280;6743;49.934;9.138;2022-09-09T08:55:35;100060.78;;;18.73;100.00
13348;BME280;6743;49.934;9.138;2022-09-09T08:58:09;100063.22;;;18.74;100.00
13348;BME280;6743;49.934;9.138;2022-09-09T09:00:44;100065.91;;;18.74;100.00
13348;BME280;6743;49.934;9.138;2022-09-09T09:03:18;100064.03;;;18.75;100.00
13348;BME280;6743;49.934;9.138;2022-09-09T09:05:57;100066.72;;;18.75;100.00
13348;BME280;6743;49.934;9.138;2022-09-09T09:08:32;100066.28;;;18.78;100.00
13348;BME280;6743;49.934;9.138;2022-09-09T09:11:03;100059.81;;;18.85;100.00
13348;BME280;6743;49.934;9.138;2022-09-09T09:13:34;100058.06;;;18.91;100.00
13348;BME280;6743;49.934;9.138;2022-09-09T09:16:16;100068.16;;;18.96;100.00
13348;BME280;6743;49.934;9.138;2022-09-09T09:18:45;100048.44;;;19.02;100.00
13348;BME280;6743;49.934;9.138;2022-09-09T09:21:15;100061.34;;;19.11;100.00
13348;BME280;6743;49.934;9.138;2022-09-09T09:23:49;100062.94;;;19.19;100.00
13348;BME280;6743;49.934;9.138;2022-09-09T09:26:21;100044.25;;;19.24;100.00
13348;BME280;6743;49.934;9.138;2022-09-09T09:28:48;100046.25;;;19.28;100.00
13348;BME280;6743;49.934;9.138;2022-09-09T09:31:15;100044.53;;;19.34;100.00
13348;BME280;6743;49.934;9.138;2022-09-09T09:33:46;100048.19;;;19.40;100.00
13348;BME280;6743;49.934;9.138;2022-09-09T09:36:13;100040.06;;;19.46;100.00
13348;BME280;6743;49.934;9.138;2022-09-09T09:38:52;100042.44;;;19.54;100.00
13348;BME280;6743;49.934;9.138;2022-09-09T09:41:28;100046.28;;;19.58;100.00
13348;BME280;6743;49.934;9.138;2022-09-09T09:43:55;100048.88;;;19.65;100.00
13348;BME280;6743;49.934;9.138;2022-09-09T09:46:23;100042.84;;;19.70;100.00
13348;BME280;6743;49.934;9.138;2022-09-09T09:48:56;100029.22;;;19.64;100.00
13348;BME280;6743;49.934;9.138;2022-09-09T09:51:22;100028.56;;;19.69;100.00
13348;BME280;6743;49.934;9.138;2022-09-09T09:53:49;100043.19;;;19.73;100.00
13348;BME280;6743;49.934;9.138;2022-09-09T09:56:26;100038.72;;;19.67;100.00
13348;BME280;6743;49.934;9.138;2022-09-09T09:58:53;100036.47;;;19.64;100.00
13348;BME280;6743;49.934;9.138;2022-09-09T10:01:22;100035.31;;;19.60;100.00
13348;BME280;6743;49.934;9.138;2022-09-09T10:03:51;100035.53;;;19.58;100.00
13348;BME280;6743;49.934;9.138;2022-09-09T10:06:29;100029.09;;;19.59;100.00
13348;BME280;6743;49.934;9.138;2022-09-09T10:08:55;100030.53;;;19.62;100.00
13348;BME280;6743;49.934;9.138;2022-09-09T10:11:35;100032.50;;;19.66;100.00
13348;BME280;6743;49.934;9.138;2022-09-09T10:14:11;100038.28;;;19.70;100.00
13348;BME280;6743;49.934;9.138;2022-09-09T10:16:58;100027.03;;;19.73;100.00
13348;BME280;6743;49.934;9.138;2022-09-09T10:19:30;100032.09;;;19.81;100.00
13348;BME280;6743;49.934;9.138;2022-09-09T10:22:04;100022.38;;;19.80;100.00
13348;BME280;6743;49.934;9.138;2022-09-09T10:24:54;100030.63;;;19.97;100.00
13348;BME280;6743;49.934;9.138;2022-09-09T10:27:25;100001.81;;;19.97;100.00
13348;BME280;6743;49.934;9.138;2022-09-09T10:30:07;100020.13;;;20.19;100.00
13348;BME280;6743;49.934;9.138;2022-09-09T10:32:46;100020.34;;;20.29;100.00
13348;BME280;6743;49.934;9.138;2022-09-09T10:35:22;100015.09;;;20.34;100.00
13348;BME280;6743;49.934;9.138;2022-09-09T10:38:13;100020.25;;;20.35;100.00
13348;BME280;6743;49.934;9.138;2022-09-09T10:40:43;100017.66;;;20.40;100.00
13348;BME280;6743;49.934;9.138;2022-09-09T10:43:24;100014.84;;;20.47;100.00
13348;BME280;6743;49.934;9.138;2022-09-09T10:46:00;100021.75;;;20.55;100.00
13348;BME280;6743;49.934;9.138;2022-09-09T10:48:47;100024.00;;;20.58;100.00
13348;BME280;6743;49.934;9.138;2022-09-09T10:51:23;100013.00;;;20.59;100.00
13348;BME280;6743;49.934;9.138;2022-09-09T10:54:05;100015.19;;;20.62;100.00
13348;BME280;6743;49.934;9.138;2022-09-09T10:56:37;100005.59;;;20.66;100.00
13348;BME280;6743;49.934;9.138;2022-09-09T10:59:09;100002.78;;;20.73;100.00
13348;BME280;6743;49.934;9.138;2022-09-09T11:01:41;100006.28;;;20.73;100.00
13348;BME280;6743;49.934;9.138;2022-09-09T11:04:13;100006.84;;;20.75;100.00
13348;BME280;6743;49.934;9.138;2022-09-09T11:06:45;99992.09;;;20.78;100.00
13348;BME280;6743;49.934;9.138;2022-09-09T11:09:15;99984.78;;;20.90;100.00
13348;BME280;6743;49.934;9.138;2022-09-09T11:11:46;99986.66;;;21.01;100.00
13348;BME280;6743;49.934;9.138;2022-09-09T11:14:19;99991.41;;;21.11;100.00
13348;BME280;6743;49.934;9.138;2022-09-09T11:16:50;99982.16;;;21.18;100.00
13348;BME280;6743;49.934;9.138;2022-09-09T11:19:23;99986.09;;;21.28;100.00
13348;BME280;6743;49.934;9.138;2022-09-09T11:21:52;99987.34;;;21.37;100.00
13348;BME280;6743;49.934;9.138;2022-09-09T11:24:22;99988.50;;;21.41;100.00
13348;BME280;6743;49.934;9.138;2022-09-09T11:26:53;99987.78;;;21.45;100.00
13348;BME280;6743;49.934;9.138;2022-09-09T11:29:37;99996.59;;;21.41;100.00
13348;BME280;6743;49.934;9.138;2022-09-09T11:32:17;99997.56;;;21.35;100.00
13348;BME280;6743;49.934;9.138;2022-09-09T11:34:53;99997.81;;;21.33;100.00
13348;BME280;6743;49.934;9.138;2022-09-09T11:37:43;100001.34;;;21.34;100.00
13348;BME280;6743;49.934;9.138;2022-09-09T11:40:19;99998.41;;;21.35;100.00
13348;BME280;6743;49.934;9.138;2022-09-09T11:42:47;99992.25;;;21.40;100.00
13348;BME280;6743;49.934;9.138;2022-09-09T11:45:23;99988.75;;;21.39;100.00
13348;BME280;6743;49.934;9.138;2022-09-09T11:47:55;99988.00;;;21.44;100.00
13348;BME280;6743;49.934;9.138;2022-09-09T11:50:34;99988.59;;;21.46;100.00
13348;BME280;6743;49.934;9.138;2022-09-09T11:53:23;99990.81;;;21.49;100.00
13348;BME280;6743;49.934;9.138;2022-09-09T11:56:09;99982.72;;;21.49;100.00
13348;BME280;6743;49.934;9.138;2022-09-09T11:58:41;99987.16;;;21.55;100.00
13348;BME280;6743;49.934;9.138;2022-09-09T12:01:16;99981.91;;;21.65;100.00
13348;BME280;6743;49.934;9.138;2022-09-09T12:04:05;99984.56;;;21.77;100.00
13348;BME280;6743;49.934;9.138;2022-09-09T12:06:44;99992.00;;;21.86;100.00
13348;BME280;6743;49.934;9.138;2022-09-09T12:09:18;99989.97;;;21.93;100.00
13348;BME280;6743;49.934;9.138;2022-09-09T12:11:45;100004.72;;;22.03;100.00
13348;BME280;6743;49.934;9.138;2022-09-09T12:14:20;100003.09;;;22.02;100.00
13348;BME280;6743;49.934;9.138;2022-09-09T12:16:46;100004.16;;;22.00;100.00
13348;BME280;6743;49.934;9.138;2022-09-09T12:19:15;99995.22;;;22.00;100.00
13348;BME280;6743;49.934;9.138;2022-09-09T12:21:50;99987.94;;;22.00;100.00
13348;BME280;6743;49.934;9.138;2022-09-09T12:24:22;99989.09;;;22.05;100.00
13348;BME280;6743;49.934;9.138;2022-09-09T12:26:56;99994.56;;;22.10;100.00
13348;BME280;6743;49.934;9.138;2022-09-09T12:29:28;99985.19;;;22.12;100.00
13348;BME280;6743;49.934;9.138;2022-09-09T12:32:01;99981.97;;;22.15;100.00
13348;BME280;6743;49.934;9.138;2022-09-09T12:34:36;99975.97;;;22.13;100.00
13348;BME280;6743;49.934;9.138;2022-09-09T12:37:11;99978.69;;;22.13;100.00
13348;BME280;6743;49.934;9.138;2022-09-09T12:39:44;99979.50;;;22.14;100.00
13348;BME280;6743;49.934;9.138;2022-09-09T12:42:19;99988.53;;;22.19;100.00
13348;BME280;6743;49.934;9.138;2022-09-09T12:44:53;99979.59;;;22.19;100.00
13348;BME280;6743;49.934;9.138;2022-09-09T12:47:22;99978.19;;;22.16;100.00
13348;BME280;6743;49.934;9.138;2022-09-09T12:49:50;99971.97;;;22.16;100.00
13348;BME280;6743;49.934;9.138;2022-09-09T12:52:23;99984.91;;;22.14;100.00
13348;BME280;6743;49.934;9.138;2022-09-09T12:54:52;99981.13;;;22.15;100.00
13348;BME280;6743;49.934;9.138;2022-09-09T12:57:19;99983.28;;;22.13;100.00
13348;BME280;6743;49.934;9.138;2022-09-09T12:59:48;99977.47;;;22.04;100.00
13348;BME280;6743;49.934;9.138;2022-09-09T13:02:21;99976.66;;;22.04;100.00
13348;BME280;6743;49.934;9.138;2022-09-09T13:04:48;99978.53;;;22.03;100.00
13348;BME280;6743;49.934;9.138;2022-09-09T13:07:16;99974.69;;;21.99;100.00
13348;BME280;6743;49.934;9.138;2022-09-09T13:09:43;99975.41;;;21.94;100.00
13348;BME280;6743;49.934;9.138;2022-09-09T13:12:14;99975.06;;;21.91;100.00